sensor_id;sensor_type;location;lat;lon;timestamp;pressure;altitude;pressure_sealevel;temperature;humidity
9059;BME280;4564;42.034;25.834;2022-11-25T00:02:21;99822.91;;;9.42;72.97
9059;BME280;4564;42.034;25.834;2022-11-25T00:04:48;99833.66;;;9.50;73.58
9059;BME280;4564;42.034;25.834;2022-11-25T00:07:14;99830.38;;;9.40;73.54
9059;BME280;4564;42.034;25.834;2022-11-25T00:09:41;99842.28;;;9.39;74.04
9059;BME280;4564;42.034;25.834;2022-11-25T00:12:07;99840.59;;;9.38;73.72
9059;BME280;4564;42.034;25.834;2022-11-25T00:14:34;99840.50;;;9.31;73.92
9059;BME280;4564;42.034;25.834;2022-11-25T00:17:02;99830.81;;;9.22;74.11
9059;BME280;4564;42.034;25.834;2022-11-25T00:19:28;99833.88;;;9.19;74.02
9059;BME280;4564;42.034;25.834;2022-11-25T00:21:55;99834.91;;;9.18;74.94
9059;BME280;4564;42.034;25.834;2022-11-25T00:24:22;99836.41;;;9.20;74.74
9059;BME280;4564;42.034;25.834;2022-11-25T00:26:48;99836.25;;;9.22;75.09
9059;BME280;4564;42.034;25.834;2022-11-25T00:29:15;99836.25;;;9.22;74.24
9059;BME280;4564;42.034;25.834;2022-11-25T00:31:42;99834.56;;;9.21;74.50
9059;BME280;4564;42.034;25.834;2022-11-25T00:34:11;99835.97;;;9.17;74.46
9059;BME280;4564;42.034;25.834;2022-11-25T00:36:38;99836.59;;;9.19;75.11
9059;BME280;4564;42.034;25.834;2022-11-25T00:39:06;99839.13;;;9.20;74.09
9059;BME280;4564;42.034;25.834;2022-11-25T00:41:33;99833.44;;;9.15;74.74
9059;BME280;4564;42.034;25.834;2022-11-25T00:44:17;99841.59;;;9.01;74.28
9059;BME280;4564;42.034;25.834;2022-11-25T00:47:04;99843.25;;;9.02;74.72
9059;BME280;4564;42.034;25.834;2022-11-25T00:49:32;99845.50;;;8.98;75.14
9059;BME280;4564;42.034;25.834;2022-11-25T00:51:59;99849.44;;;8.96;74.65
9059;BME280;4564;42.034;25.834;2022-11-25T00:54:26;99851.47;;;8.94;75.46
9059;BME280;4564;42.034;25.834;2022-11-25T00:56:53;99847.66;;;8.88;75.35
9059;BME280;4564;42.034;25.834;2022-11-25T00:59:20;99854.25;;;8.85;75.42
9059;BME280;4564;42.034;25.834;2022-11-25T01:01:46;99857.47;;;8.89;76.39
9059;BME280;4564;42.034;25.834;2022-11-25T01:04:13;99854.75;;;8.89;76.47
9059;BME280;4564;42.034;25.834;2022-11-25T01:06:41;99852.41;;;8.86;76.38
9059;BME280;4564;42.034;25.834;2022-11-25T01:09:08;99850.63;;;8.93;76.29
9059;BME280;4564;42.034;25.834;2022-11-25T01:11:34;99846.06;;;8.94;76.38
9059;BME280;4564;42.034;25.834;2022-11-25T01:14:01;99845.78;;;8.89;76.58
9059;BME280;4564;42.034;25.834;2022-11-25T01:16:28;99850.81;;;8.92;76.73
9059;BME280;4564;42.034;25.834;2022-11-25T01:18:56;99852.94;;;8.96;77.38
9059;BME280;4564;42.034;25.834;2022-11-25T01:21:23;99847.75;;;8.95;76.71
9059;BME280;4564;42.034;25.834;2022-11-25T01:23:52;99851.09;;;8.82;77.18
9059;BME280;4564;42.034;25.834;2022-11-25T01:26:19;99845.97;;;8.72;77.14
9059;BME280;4564;42.034;25.834;2022-11-25T01:28:46;99845.31;;;8.70;77.43
9059;BME280;4564;42.034;25.834;2022-11-25T01:31:14;99846.06;;;8.64;77.20
9059;BME280;4564;42.034;25.834;2022-11-25T01:33:41;99841.69;;;8.63;77.82
9059;BME280;4564;42.034;25.834;2022-11-25T01:36:08;99839.63;;;8.65;78.06
9059;BME280;4564;42.034;25.834;2022-11-25T01:38:36;99850.84;;;8.62;77.83
9059;BME280;4564;42.034;25.834;2022-11-25T01:41:04;99844.41;;;8.63;77.09
9059;BME280;4564;42.034;25.834;2022-11-25T01:43:31;99843.00;;;8.67;77.39
9059;BME280;4564;42.034;25.834;2022-11-25T01:45:58;99842.81;;;8.69;77.67
9059;BME280;4564;42.034;25.834;2022-11-25T01:48:32;99840.56;;;8.72;78.14
9059;BME280;4564;42.034;25.834;2022-11-25T01:51:01;99845.59;;;8.75;77.80
9059;BME280;4564;42.034;25.834;2022-11-25T01:53:28;99842.81;;;8.83;77.89
9059;BME280;4564;42.034;25.834;2022-11-25T01:55:55;99851.78;;;8.84;77.12
9059;BME280;4564;42.034;25.834;2022-11-25T01:58:25;99846.63;;;8.89;77.30
9059;BME280;4564;42.034;25.834;2022-11-25T02:00:53;99848.09;;;8.92;77.44
9059;BME280;4564;42.034;25.834;2022-11-25T02:03:21;99845.97;;;8.87;77.64
9059;BME280;4564;42.034;25.834;2022-11-25T02:05:49;99847.56;;;8.81;78.31
9059;BME280;4564;42.034;25.834;2022-11-25T02:08:19;99856.41;;;8.75;77.47
9059;BME280;4564;42.034;25.834;2022-11-25T02:10:48;99860.81;;;8.76;77.44
9059;BME280;4564;42.034;25.834;2022-11-25T02:13:15;99851.00;;;8.75;78.18
9059;BME280;4564;42.034;25.834;2022-11-25T02:15:43;99862.78;;;8.68;77.75
9059;BME280;4564;42.034;25.834;2022-11-25T02:18:09;99860.91;;;8.68;77.83
9059;BME280;4564;42.034;25.834;2022-11-25T02:20:37;99862.56;;;8.69;77.78
9059;BME280;4564;42.034;25.834;2022-11-25T02:23:05;99861.75;;;8.69;77.51
9059;BME280;4564;42.034;25.834;2022-11-25T02:25:37;99868.75;;;8.63;78.03
9059;BME280;4564;42.034;25.834;2022-11-25T02:28:06;99869.75;;;8.62;77.37
9059;BME280;4564;42.034;25.834;2022-11-25T02:30:34;99870.78;;;8.61;77.58
9059;BME280;4564;42.034;25.834;2022-11-25T02:33:01;99874.16;;;8.63;77.90
9059;BME280;4564;42.034;25.834;2022-11-25T02:35:28;99882.91;;;8.65;78.02
9059;BME280;4564;42.034;25.834;2022-11-25T02:37:57;99870.03;;;8.67;77.66
9059;BME280;4564;42.034;25.834;2022-11-25T02:40:25;99883.28;;;8.62;77.84
9059;BME280;4564;42.034;25.834;2022-11-25T02:42:54;99874.50;;;8.60;77.24
9059;BME280;4564;42.034;25.834;2022-11-25T02:45:22;99877.31;;;8.52;78.03
9059;BME280;4564;42.034;25.834;2022-11-25T02:47:51;99876.34;;;8.45;78.06
9059;BME280;4564;42.034;25.834;2022-11-25T02:50:18;99872.06;;;8.36;78.43
9059;BME280;4564;42.034;25.834;2022-11-25T02:52:45;99879.13;;;8.37;78.48
9059;BME280;4564;42.034;25.834;2022-11-25T02:55:12;99879.19;;;8.29;78.18
9059;BME280;4564;42.034;25.834;2022-11-25T02:57:39;99881.59;;;8.24;79.35
9059;BME280;4564;42.034;25.834;2022-11-25T03:00:07;99876.63;;;8.13;79.51
9059;BME280;4564;42.034;25.834;2022-11-25T03:02:34;99883.03;;;8.12;79.70
9059;BME280;4564;42.034;25.834;2022-11-25T03:05:01;99883.22;;;8.10;80.12
9059;BME280;4564;42.034;25.834;2022-11-25T03:07:27;99885.75;;;8.12;80.06
9059;BME280;4564;42.034;25.834;2022-11-25T03:09:54;99878.66;;;8.11;79.80
9059;BME280;4564;42.034;25.834;2022-11-25T03:12:21;99881.19;;;8.12;79.85
9059;BME280;4564;42.034;25.834;2022-11-25T03:14:48;99884.34;;;8.16;79.91
9059;BME280;4564;42.034;25.834;2022-11-25T03:17:15;99881.66;;;8.16;79.55
9059;BME280;4564;42.034;25.834;2022-11-25T03:19:42;99885.50;;;8.21;79.30
9059;BME280;4564;42.034;25.834;2022-11-25T03:22:09;99885.75;;;8.12;79.28
9059;BME280;4564;42.034;25.834;2022-11-25T03:24:35;99887.44;;;8.13;79.82
9059;BME280;4564;42.034;25.834;2022-11-25T03:27:02;99889.84;;;8.08;80.12
9059;BME280;4564;42.034;25.834;2022-11-25T03:29:29;99892.25;;;8.02;80.36
9059;BME280;4564;42.034;25.834;2022-11-25T03:31:56;99886.13;;;8.09;80.78
9059;BME280;4564;42.034;25.834;2022-11-25T03:34:24;99889.59;;;7.94;80.55
9059;BME280;4564;42.034;25.834;2022-11-25T03:36:50;99889.00;;;7.84;80.89
9059;BME280;4564;42.034;25.834;2022-11-25T03:39:17;99895.47;;;7.75;81.61
9059;BME280;4564;42.034;25.834;2022-11-25T03:41:43;99896.19;;;7.69;81.41
9059;BME280;4564;42.034;25.834;2022-11-25T03:44:10;99894.88;;;7.65;82.36
9059;BME280;4564;42.034;25.834;2022-11-25T03:46:37;99901.47;;;7.63;83.05
9059;BME280;4564;42.034;25.834;2022-11-25T03:49:03;99898.28;;;7.59;82.90
9059;BME280;4564;42.034;25.834;2022-11-25T03:51:31;99897.97;;;7.54;81.81
9059;BME280;4564;42.034;25.834;2022-11-25T03:53:58;99899.78;;;7.62;82.42
9059;BME280;4564;42.034;25.834;2022-11-25T03:56:24;99908.72;;;7.62;81.20
9059;BME280;4564;42.034;25.834;2022-11-25T03:58:51;99907.06;;;7.61;81.37
9059;BME280;4564;42.034;25.834;2022-11-25T04:01:18;99913.66;;;7.58;82.85
9059;BME280;4564;42.034;25.834;2022-11-25T04:03:44;99910.09;;;7.58;82.81
9059;BME280;4564;42.034;25.834;2022-11-25T04:06:11;99917.53;;;7.56;83.93
9059;BME280;4564;42.034;25.834;2022-11-25T04:08:39;99914.19;;;7.54;83.23
9059;BME280;4564;42.034;25.834;2022-11-25T04:11:06;99912.66;;;7.51;82.84
9059;BME280;4564;42.034;25.834;2022-11-25T04:13:33;99919.56;;;7.54;83.29
9059;BME280;4564;42.034;25.834;2022-11-25T04:15:59;99920.66;;;7.45;83.15
9059;BME280;4564;42.034;25.834;2022-11-25T04:18:25;99923.34;;;7.45;82.46
9059;BME280;4564;42.034;25.834;2022-11-25T04:20:52;99918.59;;;7.47;82.74
9059;BME280;4564;42.034;25.834;2022-11-25T04:23:19;99924.81;;;7.55;82.86
9059;BME280;4564;42.034;25.834;2022-11-25T04:25:49;99923.44;;;7.59;82.09
9059;BME280;4564;42.034;25.834;2022-11-25T04:28:15;99915.50;;;7.58;81.83
9059;BME280;4564;42.034;25.834;2022-11-25T04:30:42;99922.75;;;7.57;82.15
9059;BME280;4564;42.034;25.834;2022-11-25T04:33:09;99920.22;;;7.56;82.35
9059;BME280;4564;42.034;25.834;2022-11-25T04:35:35;99920.75;;;7.51;81.99
9059;BME280;4564;42.034;25.834;2022-11-25T04:38:02;99924.16;;;7.45;82.49
9059;BME280;4564;42.034;25.834;2022-11-25T04:40:28;99916.56;;;7.49;82.51
9059;BME280;4564;42.034;25.834;2022-11-25T04:42:56;99925.31;;;7.51;83.28
9059;BME280;4564;42.034;25.834;2022-11-25T04:45:23;99921.06;;;7.56;82.63
9059;BME280;4564;42.034;25.834;2022-11-25T04:47:50;99931.03;;;7.56;82.15
9059;BME280;4564;42.034;25.834;2022-11-25T04:50:17;99933.38;;;7.59;82.89
9059;BME280;4564;42.034;25.834;2022-11-25T04:52:44;99924.59;;;7.65;82.86
9059;BME280;4564;42.034;25.834;2022-11-25T04:55:11;99933.84;;;7.71;84.13
9059;BME280;4564;42.034;25.834;2022-11-25T04:57:37;99929.91;;;7.73;83.16
9059;BME280;4564;42.034;25.834;2022-11-25T05:00:06;99951.19;;;7.76;82.86
9059;BME280;4564;42.034;25.834;2022-11-25T05:02:32;99943.00;;;7.84;81.85
9059;BME280;4564;42.034;25.834;2022-11-25T05:04:58;99953.78;;;7.92;82.22
9059;BME280;4564;42.034;25.834;2022-11-25T05:07:25;99950.53;;;7.97;81.41
9059;BME280;4564;42.034;25.834;2022-11-25T05:09:52;99953.69;;;8.09;81.07
9059;BME280;4564;42.034;25.834;2022-11-25T05:12:20;99963.94;;;8.13;80.44
9059;BME280;4564;42.034;25.834;2022-11-25T05:14:47;99963.56;;;8.16;79.60
9059;BME280;4564;42.034;25.834;2022-11-25T05:17:16;99966.47;;;8.15;79.10
9059;BME280;4564;42.034;25.834;2022-11-25T05:19:43;99965.72;;;8.21;79.72
9059;BME280;4564;42.034;25.834;2022-11-25T05:22:10;99969.47;;;8.20;79.21
9059;BME280;4564;42.034;25.834;2022-11-25T05:24:37;99980.63;;;8.17;79.08
9059;BME280;4564;42.034;25.834;2022-11-25T05:27:04;99995.78;;;8.26;79.14
9059;BME280;4564;42.034;25.834;2022-11-25T05:29:30;99995.06;;;8.32;78.63
9059;BME280;4564;42.034;25.834;2022-11-25T05:31:57;99986.06;;;8.39;79.02
9059;BME280;4564;42.034;25.834;2022-11-25T05:34:25;99996.03;;;8.39;78.53
9059;BME280;4564;42.034;25.834;2022-11-25T05:36:52;99999.44;;;8.41;78.18
9059;BME280;4564;42.034;25.834;2022-11-25T05:39:19;99998.72;;;8.47;77.59
9059;BME280;4564;42.034;25.834;2022-11-25T05:41:46;100005.00;;;8.62;76.66
9059;BME280;4564;42.034;25.834;2022-11-25T05:44:12;100009.72;;;8.60;76.32
9059;BME280;4564;42.034;25.834;2022-11-25T05:46:39;100013.97;;;8.63;76.07
9059;BME280;4564;42.034;25.834;2022-11-25T05:49:05;100021.88;;;8.64;75.55
9059;BME280;4564;42.034;25.834;2022-11-25T05:51:34;100016.75;;;8.69;76.34
9059;BME280;4564;42.034;25.834;2022-11-25T05:54:00;100027.06;;;8.74;76.00
9059;BME280;4564;42.034;25.834;2022-11-25T05:56:27;100029.84;;;8.80;74.85
9059;BME280;4564;42.034;25.834;2022-11-25T05:58:53;100028.81;;;8.81;74.43
9059;BME280;4564;42.034;25.834;2022-11-25T06:01:20;100043.31;;;8.89;74.85
9059;BME280;4564;42.034;25.834;2022-11-25T06:03:47;100046.34;;;9.08;75.01
9059;BME280;4564;42.034;25.834;2022-11-25T06:06:14;100056.66;;;9.27;73.11
9059;BME280;4564;42.034;25.834;2022-11-25T06:08:42;100060.94;;;9.51;73.38
9059;BME280;4564;42.034;25.834;2022-11-25T06:11:09;100057.66;;;10.00;72.59
9059;BME280;4564;42.034;25.834;2022-11-25T06:13:37;100050.38;;;10.72;69.08
9059;BME280;4564;42.034;25.834;2022-11-25T06:16:07;100053.78;;;11.30;68.11
9059;BME280;4564;42.034;25.834;2022-11-25T06:18:34;100060.38;;;11.49;64.99
9059;BME280;4564;42.034;25.834;2022-11-25T06:21:01;100059.97;;;11.17;66.38
9059;BME280;4564;42.034;25.834;2022-11-25T06:23:28;100071.63;;;10.90;66.91
9059;BME280;4564;42.034;25.834;2022-11-25T06:26:02;100066.97;;;10.63;67.72
9059;BME280;4564;42.034;25.834;2022-11-25T06:28:29;100063.59;;;10.39;67.89
9059;BME280;4564;42.034;25.834;2022-11-25T06:30:56;100072.53;;;10.19;68.37
9059;BME280;4564;42.034;25.834;2022-11-25T06:33:22;100074.31;;;9.97;69.16
9059;BME280;4564;42.034;25.834;2022-11-25T06:35:49;100076.75;;;9.92;70.12
9059;BME280;4564;42.034;25.834;2022-11-25T06:38:15;100079.81;;;9.89;70.01
9059;BME280;4564;42.034;25.834;2022-11-25T06:40:42;100082.53;;;9.89;70.21
9059;BME280;4564;42.034;25.834;2022-11-25T06:43:10;100081.22;;;9.85;70.19
9059;BME280;4564;42.034;25.834;2022-11-25T06:45:36;100090.03;;;9.87;70.08
9059;BME280;4564;42.034;25.834;2022-11-25T06:48:03;100093.38;;;9.89;70.73
9059;BME280;4564;42.034;25.834;2022-11-25T06:50:30;100089.63;;;9.90;70.82
9059;BME280;4564;42.034;25.834;2022-11-25T06:52:58;100089.47;;;9.91;69.97
9059;BME280;4564;42.034;25.834;2022-11-25T06:55:25;100098.44;;;9.92;70.61
9059;BME280;4564;42.034;25.834;2022-11-25T06:57:52;100100.13;;;9.93;69.47
9059;BME280;4564;42.034;25.834;2022-11-25T07:00:20;100105.25;;;9.88;69.99
9059;BME280;4564;42.034;25.834;2022-11-25T07:02:47;100109.16;;;10.00;70.66
9059;BME280;4564;42.034;25.834;2022-11-25T07:05:13;100111.88;;;10.00;68.99
9059;BME280;4564;42.034;25.834;2022-11-25T07:07:40;100113.56;;;10.01;69.09
9059;BME280;4564;42.034;25.834;2022-11-25T07:10:07;100117.56;;;10.05;69.59
9059;BME280;4564;42.034;25.834;2022-11-25T07:12:34;100125.69;;;10.05;69.28
9059;BME280;4564;42.034;25.834;2022-11-25T07:15:01;100121.66;;;10.16;69.55
9059;BME280;4564;42.034;25.834;2022-11-25T07:17:29;100123.53;;;10.15;69.92
9059;BME280;4564;42.034;25.834;2022-11-25T07:19:55;100133.47;;;10.23;69.17
9059;BME280;4564;42.034;25.834;2022-11-25T07:22:22;100127.75;;;10.32;69.16
9059;BME280;4564;42.034;25.834;2022-11-25T07:24:48;100140.03;;;10.28;68.68
9059;BME280;4564;42.034;25.834;2022-11-25T07:27:15;100132.88;;;10.42;68.25
9059;BME280;4564;42.034;25.834;2022-11-25T07:29:42;100140.38;;;10.40;67.47
9059;BME280;4564;42.034;25.834;2022-11-25T07:32:09;100149.84;;;10.29;68.59
9059;BME280;4564;42.034;25.834;2022-11-25T07:34:37;100147.09;;;10.44;69.86
9059;BME280;4564;42.034;25.834;2022-11-25T07:37:03;100148.13;;;10.58;69.28
9059;BME280;4564;42.034;25.834;2022-11-25T07:39:30;100153.06;;;10.69;68.14
9059;BME280;4564;42.034;25.834;2022-11-25T07:41:57;100156.91;;;10.81;68.44
9059;BME280;4564;42.034;25.834;2022-11-25T07:44:23;100156.41;;;10.92;68.09
9059;BME280;4564;42.034;25.834;2022-11-25T07:46:50;100165.59;;;10.91;67.30
9059;BME280;4564;42.034;25.834;2022-11-25T07:49:17;100160.16;;;10.91;66.60
9059;BME280;4564;42.034;25.834;2022-11-25T07:51:48;100164.56;;;10.92;68.04
9059;BME280;4564;42.034;25.834;2022-11-25T07:54:15;100168.19;;;10.99;67.25
9059;BME280;4564;42.034;25.834;2022-11-25T07:56:42;100170.13;;;10.84;66.83
9059;BME280;4564;42.034;25.834;2022-11-25T07:59:10;100165.84;;;10.96;66.56
9059;BME280;4564;42.034;25.834;2022-11-25T08:01:37;100172.94;;;11.12;67.47
9059;BME280;4564;42.034;25.834;2022-11-25T08:04:05;100175.06;;;11.16;65.99
9059;BME280;4564;42.034;25.834;2022-11-25T08:06:35;100179.97;;;11.27;67.27
9059;BME280;4564;42.034;25.834;2022-11-25T08:09:04;100178.28;;;11.26;66.72
9059;BME280;4564;42.034;25.834;2022-11-25T08:11:30;100180.41;;;11.31;66.20
9059;BME280;4564;42.034;25.834;2022-11-25T08:13:57;100181.00;;;11.48;65.72
9059;BME280;4564;42.034;25.834;2022-11-25T08:16:24;100187.78;;;11.37;65.87
9059;BME280;4564;42.034;25.834;2022-11-25T08:18:52;100195.34;;;11.42;66.01
9059;BME280;4564;42.034;25.834;2022-11-25T08:21:19;100188.75;;;11.51;65.65
9059;BME280;4564;42.034;25.834;2022-11-25T08:23:45;100148.31;;;11.41;65.77
9059;BME280;4564;42.034;25.834;2022-11-25T08:26:15;100194.13;;;11.93;65.96
9059;BME280;4564;42.034;25.834;2022-11-25T08:28:42;100197.03;;;12.19;64.88
9059;BME280;4564;42.034;25.834;2022-11-25T08:31:09;100200.84;;;12.32;64.11
9059;BME280;4564;42.034;25.834;2022-11-25T08:33:37;100209.25;;;12.37;63.17
9059;BME280;4564;42.034;25.834;2022-11-25T08:36:03;100195.63;;;12.30;63.97
9059;BME280;4564;42.034;25.834;2022-11-25T08:38:31;100207.81;;;12.41;62.86
9059;BME280;4564;42.034;25.834;2022-11-25T08:40:57;100207.44;;;12.50;62.72
9059;BME280;4564;42.034;25.834;2022-11-25T08:43:25;100209.34;;;12.50;61.63
9059;BME280;4564;42.034;25.834;2022-11-25T08:45:52;100201.53;;;12.40;61.32
9059;BME280;4564;42.034;25.834;2022-11-25T08:48:19;100209.88;;;12.73;61.26
9059;BME280;4564;42.034;25.834;2022-11-25T08:50:49;100201.69;;;12.80;60.54
9059;BME280;4564;42.034;25.834;2022-11-25T08:53:16;100207.63;;;12.90;61.13
9059;BME280;4564;42.034;25.834;2022-11-25T08:55:42;100198.25;;;13.06;60.61
9059;BME280;4564;42.034;25.834;2022-11-25T08:58:09;100205.19;;;13.15;59.77
9059;BME280;4564;42.034;25.834;2022-11-25T09:00:39;100198.72;;;13.22;58.37
9059;BME280;4564;42.034;25.834;2022-11-25T09:03:06;100206.06;;;13.28;59.27
9059;BME280;4564;42.034;25.834;2022-11-25T09:05:33;100203.94;;;13.24;59.30
9059;BME280;4564;42.034;25.834;2022-11-25T09:08:00;100208.97;;;13.14;59.18
9059;BME280;4564;42.034;25.834;2022-11-25T09:10:27;100208.91;;;13.07;58.82
9059;BME280;4564;42.034;25.834;2022-11-25T09:12:54;100204.09;;;13.02;59.91
9059;BME280;4564;42.034;25.834;2022-11-25T09:15:20;100206.56;;;12.91;59.01
9059;BME280;4564;42.034;25.834;2022-11-25T09:17:48;100210.03;;;12.65;57.20
9059;BME280;4564;42.034;25.834;2022-11-25T09:20:22;100214.59;;;12.58;60.34
9059;BME280;4564;42.034;25.834;2022-11-25T09:22:49;100209.56;;;12.55;60.63
9059;BME280;4564;42.034;25.834;2022-11-25T09:25:15;100214.00;;;12.69;61.34
9059;BME280;4564;42.034;25.834;2022-11-25T09:27:42;100210.13;;;12.91;60.06
9059;BME280;4564;42.034;25.834;2022-11-25T09:30:09;100208.88;;;12.94;60.19
9059;BME280;4564;42.034;25.834;2022-11-25T09:32:36;100207.53;;;12.70;58.38
9059;BME280;4564;42.034;25.834;2022-11-25T09:35:04;100211.94;;;12.71;59.57
9059;BME280;4564;42.034;25.834;2022-11-25T09:37:31;100211.53;;;12.74;60.07
9059;BME280;4564;42.034;25.834;2022-11-25T09:39:58;100215.25;;;12.60;60.36
9059;BME280;4564;42.034;25.834;2022-11-25T09:42:27;100213.31;;;12.54;61.45
9059;BME280;4564;42.034;25.834;2022-11-25T09:45:14;100211.28;;;12.69;59.88
9059;BME280;4564;42.034;25.834;2022-11-25T09:48:02;100198.97;;;12.73;58.43
9059;BME280;4564;42.034;25.834;2022-11-25T09:50:38;100210.94;;;12.79;58.13
9059;BME280;4564;42.034;25.834;2022-11-25T09:53:11;100197.31;;;12.79;57.91
9059;BME280;4564;42.034;25.834;2022-11-25T09:55:43;100197.50;;;12.77;58.74
9059;BME280;4564;42.034;25.834;2022-11-25T09:58:15;100198.75;;;12.75;58.53
9059;BME280;4564;42.034;25.834;2022-11-25T10:00:45;100205.22;;;12.67;57.53
9059;BME280;4564;42.034;25.834;2022-11-25T10:03:14;100207.91;;;12.60;58.43
9059;BME280;4564;42.034;25.834;2022-11-25T10:05:43;100199.09;;;12.52;56.85
9059;BME280;4564;42.034;25.834;2022-11-25T10:08:13;100201.97;;;12.44;56.55
9059;BME280;4564;42.034;25.834;2022-11-25T10:10:42;100196.38;;;12.52;57.09
9059;BME280;4564;42.034;25.834;2022-11-25T10:13:13;100201.41;;;12.55;56.86
9059;BME280;4564;42.034;25.834;2022-11-25T10:15:42;100199.31;;;12.57;57.20
9059;BME280;4564;42.034;25.834;2022-11-25T10:18:11;100199.09;;;12.58;57.47
9059;BME280;4564;42.034;25.834;2022-11-25T10:20:43;100202.47;;;12.60;56.04
9059;BME280;4564;42.034;25.834;2022-11-25T10:23:15;100195.34;;;12.59;55.75
9059;BME280;4564;42.034;25.834;2022-11-25T10:25:45;100206.66;;;12.56;52.62
9059;BME280;4564;42.034;25.834;2022-11-25T10:28:15;100207.69;;;12.55;55.20
9059;BME280;4564;42.034;25.834;2022-11-25T10:30:43;100205.16;;;12.54;53.92
9059;BME280;4564;42.034;25.834;2022-11-25T10:33:16;100212.38;;;12.68;53.33
9059;BME280;4564;42.034;25.834;2022-11-25T10:35:47;100208.00;;;12.74;54.62
9059;BME280;4564;42.034;25.834;2022-11-25T10:38:17;100209.66;;;12.81;54.57
9059;BME280;4564;42.034;25.834;2022-11-25T10:40:46;100203.66;;;12.99;52.52
9059;BME280;4564;42.034;25.834;2022-11-25T10:43:14;100198.28;;;13.19;53.08
9059;BME280;4564;42.034;25.834;2022-11-25T10:45:43;100206.69;;;13.24;54.59
9059;BME280;4564;42.034;25.834;2022-11-25T10:48:15;100207.13;;;13.34;54.59
9059;BME280;4564;42.034;25.834;2022-11-25T10:50:50;100205.63;;;13.25;54.22
9059;BME280;4564;42.034;25.834;2022-11-25T10:53:20;100205.25;;;13.28;54.08
9059;BME280;4564;42.034;25.834;2022-11-25T10:55:57;100205.25;;;13.41;54.13
9059;BME280;4564;42.034;25.834;2022-11-25T10:58:25;100206.94;;;13.42;53.47
9059;BME280;4564;42.034;25.834;2022-11-25T11:01:00;100190.56;;;13.55;52.61
9059;BME280;4564;42.034;25.834;2022-11-25T11:03:27;100201.28;;;13.57;53.73
9059;BME280;4564;42.034;25.834;2022-11-25T11:05:55;100203.16;;;13.43;52.77
9059;BME280;4564;42.034;25.834;2022-11-25T11:08:22;100202.50;;;13.28;54.13
9059;BME280;4564;42.034;25.834;2022-11-25T11:13:31;100204.59;;;13.26;52.70
9059;BME280;4564;42.034;25.834;2022-11-25T11:15:57;100203.56;;;13.27;51.95
9059;BME280;4564;42.034;25.834;2022-11-25T11:18:25;100198.72;;;13.29;51.29
9059;BME280;4564;42.034;25.834;2022-11-25T11:20:53;100199.78;;;13.34;52.83
9059;BME280;4564;42.034;25.834;2022-11-25T11:23:21;100193.00;;;13.11;53.76
9059;BME280;4564;42.034;25.834;2022-11-25T11:25:55;100197.81;;;13.09;51.93
9059;BME280;4564;42.034;25.834;2022-11-25T11:28:23;100200.09;;;12.98;52.92
9059;BME280;4564;42.034;25.834;2022-11-25T11:30:52;100198.84;;;12.94;52.68
9059;BME280;4564;42.034;25.834;2022-11-25T11:33:27;100201.91;;;12.85;53.02
9059;BME280;4564;42.034;25.834;2022-11-25T11:35:54;100198.16;;;12.79;52.76
9059;BME280;4564;42.034;25.834;2022-11-25T11:38:26;100201.72;;;12.86;53.12
9059;BME280;4564;42.034;25.834;2022-11-25T11:40:57;100209.47;;;12.83;53.43
9059;BME280;4564;42.034;25.834;2022-11-25T11:43:36;100213.25;;;12.82;53.53
9059;BME280;4564;42.034;25.834;2022-11-25T11:46:11;100208.00;;;12.80;52.97
9059;BME280;4564;42.034;25.834;2022-11-25T11:48:40;100208.78;;;12.74;54.11
9059;BME280;4564;42.034;25.834;2022-11-25T11:51:15;100208.19;;;12.72;54.93
9059;BME280;4564;42.034;25.834;2022-11-25T11:53:48;100200.25;;;12.77;55.26
9059;BME280;4564;42.034;25.834;2022-11-25T11:56:21;100215.78;;;12.96;55.42
9059;BME280;4564;42.034;25.834;2022-11-25T11:58:54;100206.06;;;13.22;54.12
9059;BME280;4564;42.034;25.834;2022-11-25T12:01:26;100206.91;;;13.29;54.04
9059;BME280;4564;42.034;25.834;2022-11-25T12:03:57;100220.34;;;13.43;52.06
9059;BME280;4564;42.034;25.834;2022-11-25T12:06:25;100208.59;;;13.50;51.60
9059;BME280;4564;42.034;25.834;2022-11-25T12:08:55;100213.22;;;13.56;52.92
9059;BME280;4564;42.034;25.834;2022-11-25T12:11:26;100214.88;;;13.50;53.66
9059;BME280;4564;42.034;25.834;2022-11-25T12:13:57;100222.03;;;13.38;51.96
9059;BME280;4564;42.034;25.834;2022-11-25T12:16:26;100220.13;;;13.32;52.32
9059;BME280;4564;42.034;25.834;2022-11-25T12:18:55;100206.94;;;13.42;52.24
9059;BME280;4564;42.034;25.834;2022-11-25T12:21:32;100216.78;;;13.43;53.00
9059;BME280;4564;42.034;25.834;2022-11-25T12:24:02;100218.22;;;13.39;51.50
9059;BME280;4564;42.034;25.834;2022-11-25T12:26:34;100212.78;;;13.32;51.72
9059;BME280;4564;42.034;25.834;2022-11-25T12:29:04;100214.25;;;13.35;51.40
9059;BME280;4564;42.034;25.834;2022-11-25T12:31:34;100210.06;;;13.39;51.79
9059;BME280;4564;42.034;25.834;2022-11-25T12:34:04;100215.31;;;13.27;52.12
9059;BME280;4564;42.034;25.834;2022-11-25T12:36:34;100214.84;;;13.17;52.25
9059;BME280;4564;42.034;25.834;2022-11-25T12:39:03;100217.81;;;13.22;53.50
9059;BME280;4564;42.034;25.834;2022-11-25T12:41:34;100215.28;;;13.21;54.56
9059;BME280;4564;42.034;25.834;2022-11-25T12:44:03;100223.25;;;13.22;54.79
9059;BME280;4564;42.034;25.834;2022-11-25T12:46:33;100223.28;;;13.42;51.46
9059;BME280;4564;42.034;25.834;2022-11-25T12:49:00;100216.78;;;13.50;51.14
9059;BME280;4564;42.034;25.834;2022-11-25T12:51:34;100224.53;;;13.66;53.16
9059;BME280;4564;42.034;25.834;2022-11-25T12:54:12;100229.81;;;13.67;51.72
9059;BME280;4564;42.034;25.834;2022-11-25T12:56:46;100230.84;;;13.73;51.36
9059;BME280;4564;42.034;25.834;2022-11-25T12:59:26;100230.44;;;13.76;48.57
9059;BME280;4564;42.034;25.834;2022-11-25T13:02:00;100230.63;;;13.94;48.96
9059;BME280;4564;42.034;25.834;2022-11-25T13:04:47;100231.06;;;14.04;48.92
9059;BME280;4564;42.034;25.834;2022-11-25T13:07:23;100228.31;;;14.24;46.90
9059;BME280;4564;42.034;25.834;2022-11-25T13:09:58;100237.53;;;14.43;48.31
9059;BME280;4564;42.034;25.834;2022-11-25T13:12:30;100234.59;;;14.44;48.42
9059;BME280;4564;42.034;25.834;2022-11-25T13:15:11;100240.44;;;14.54;49.42
9059;BME280;4564;42.034;25.834;2022-11-25T13:17:40;100245.09;;;14.27;49.60
9059;BME280;4564;42.034;25.834;2022-11-25T13:20:22;100238.78;;;14.27;50.03